sensor_id;sensor_type;location;lat;lon;timestamp;temperature;humidity
73572;DHT22;61854;48.510;-2.770;2022-11-20T00:02:15;8.90;94.20
73572;DHT22;61854;48.510;-2.770;2022-11-20T00:04:41;8.90;94.10
73572;DHT22;61854;48.510;-2.770;2022-11-20T00:07:07;8.90;94.00
73572;DHT22;61854;48.510;-2.770;2022-11-20T00:09:32;9.00;94.00
73572;DHT22;61854;48.510;-2.770;2022-11-20T00:11:58;9.10;93.90
73572;DHT22;61854;48.510;-2.770;2022-11-20T00:14:23;9.10;93.80
73572;DHT22;61854;48.510;-2.770;2022-11-20T00:16:49;9.10;93.90
73572;DHT22;61854;48.510;-2.770;2022-11-20T00:19:15;9.10;94.00
73572;DHT22;61854;48.510;-2.770;2022-11-20T00:21:40;9.10;94.00
73572;DHT22;61854;48.510;-2.770;2022-11-20T00:24:08;9.20;94.20
73572;DHT22;61854;48.510;-2.770;2022-11-20T00:26:36;9.20;94.20
73572;DHT22;61854;48.510;-2.770;2022-11-20T00:29:02;9.20;94.40
73572;DHT22;61854;48.510;-2.770;2022-11-20T00:31:28;9.20;94.60
73572;DHT22;61854;48.510;-2.770;2022-11-20T00:33:54;9.20;94.70
73572;DHT22;61854;48.510;-2.770;2022-11-20T00:36:25;9.20;95.00
73572;DHT22;61854;48.510;-2.770;2022-11-20T00:38:52;9.20;94.90
73572;DHT22;61854;48.510;-2.770;2022-11-20T00:41:18;9.10;95.00
73572;DHT22;61854;48.510;-2.770;2022-11-20T00:43:43;9.10;95.20
73572;DHT22;61854;48.510;-2.770;2022-11-20T00:46:12;9.10;95.20
73572;DHT22;61854;48.510;-2.770;2022-11-20T00:48:38;9.10;95.20
73572;DHT22;61854;48.510;-2.770;2022-11-20T00:51:04;9.10;95.10
73572;DHT22;61854;48.510;-2.770;2022-11-20T00:53:30;9.10;95.30
73572;DHT22;61854;48.510;-2.770;2022-11-20T00:55:57;9.10;95.40
73572;DHT22;61854;48.510;-2.770;2022-11-20T00:58:25;9.10;95.40
73572;DHT22;61854;48.510;-2.770;2022-11-20T01:00:51;9.10;95.40
73572;DHT22;61854;48.510;-2.770;2022-11-20T01:03:17;9.10;95.40
73572;DHT22;61854;48.510;-2.770;2022-11-20T01:05:46;9.10;95.30
73572;DHT22;61854;48.510;-2.770;2022-11-20T01:08:12;9.20;95.20
73572;DHT22;61854;48.510;-2.770;2022-11-20T01:10:40;9.20;95.20
73572;DHT22;61854;48.510;-2.770;2022-11-20T01:13:06;9.20;95.20
73572;DHT22;61854;48.510;-2.770;2022-11-20T01:15:50;9.20;95.20
73572;DHT22;61854;48.510;-2.770;2022-11-20T01:18:16;9.30;95.20
73572;DHT22;61854;48.510;-2.770;2022-11-20T01:20:41;9.30;95.20
73572;DHT22;61854;48.510;-2.770;2022-11-20T01:23:07;9.30;95.10
73572;DHT22;61854;48.510;-2.770;2022-11-20T01:25:34;9.30;95.20
73572;DHT22;61854;48.510;-2.770;2022-11-20T01:28:00;9.40;95.20
73572;DHT22;61854;48.510;-2.770;2022-11-20T01:30:25;9.40;95.40
73572;DHT22;61854;48.510;-2.770;2022-11-20T01:32:51;9.40;95.50
73572;DHT22;61854;48.510;-2.770;2022-11-20T01:35:16;9.30;95.70
73572;DHT22;61854;48.510;-2.770;2022-11-20T01:37:42;9.30;95.90
73572;DHT22;61854;48.510;-2.770;2022-11-20T01:40:08;9.30;96.10
73572;DHT22;61854;48.510;-2.770;2022-11-20T01:42:34;9.30;96.40
73572;DHT22;61854;48.510;-2.770;2022-11-20T01:48:12;9.30;96.90
73572;DHT22;61854;48.510;-2.770;2022-11-20T01:50:39;9.30;97.10
73572;DHT22;61854;48.510;-2.770;2022-11-20T01:53:08;9.20;97.30
73572;DHT22;61854;48.510;-2.770;2022-11-20T01:55:39;9.20;97.30
73572;DHT22;61854;48.510;-2.770;2022-11-20T01:58:06;9.20;97.30
73572;DHT22;61854;48.510;-2.770;2022-11-20T02:00:33;9.20;97.60
73572;DHT22;61854;48.510;-2.770;2022-11-20T02:03:01;9.10;97.60
73572;DHT22;61854;48.510;-2.770;2022-11-20T02:05:49;9.10;97.60
73572;DHT22;61854;48.510;-2.770;2022-11-20T02:08:17;9.10;97.60
73572;DHT22;61854;48.510;-2.770;2022-11-20T02:10:43;9.20;97.40
73572;DHT22;61854;48.510;-2.770;2022-11-20T02:13:09;9.20;97.30
73572;DHT22;61854;48.510;-2.770;2022-11-20T02:15:53;9.20;97.40
73572;DHT22;61854;48.510;-2.770;2022-11-20T02:18:20;9.20;97.30
73572;DHT22;61854;48.510;-2.770;2022-11-20T02:20:48;9.10;97.40
73572;DHT22;61854;48.510;-2.770;2022-11-20T02:23:33;9.20;97.50
73572;DHT22;61854;48.510;-2.770;2022-11-20T02:26:03;9.20;97.50
73572;DHT22;61854;48.510;-2.770;2022-11-20T02:28:30;9.20;97.40
73572;DHT22;61854;48.510;-2.770;2022-11-20T02:30:56;9.30;97.50
73572;DHT22;61854;48.510;-2.770;2022-11-20T02:33:22;9.30;97.60
73572;DHT22;61854;48.510;-2.770;2022-11-20T02:35:47;9.30;97.50
73572;DHT22;61854;48.510;-2.770;2022-11-20T02:38:14;9.30;97.60
73572;DHT22;61854;48.510;-2.770;2022-11-20T02:40:40;9.20;97.70
73572;DHT22;61854;48.510;-2.770;2022-11-20T02:43:06;9.20;97.80
73572;DHT22;61854;48.510;-2.770;2022-11-20T02:45:32;9.30;97.90
73572;DHT22;61854;48.510;-2.770;2022-11-20T02:47:58;9.30;98.10
73572;DHT22;61854;48.510;-2.770;2022-11-20T02:50:24;9.30;98.10
73572;DHT22;61854;48.510;-2.770;2022-11-20T02:52:49;9.30;98.10
73572;DHT22;61854;48.510;-2.770;2022-11-20T02:55:15;9.30;98.20
73572;DHT22;61854;48.510;-2.770;2022-11-20T02:57:40;9.30;98.20
73572;DHT22;61854;48.510;-2.770;2022-11-20T03:00:07;9.30;98.30
73572;DHT22;61854;48.510;-2.770;2022-11-20T03:02:33;9.30;98.30
73572;DHT22;61854;48.510;-2.770;2022-11-20T03:04:59;9.30;98.50
73572;DHT22;61854;48.510;-2.770;2022-11-20T03:07:24;9.30;98.50
73572;DHT22;61854;48.510;-2.770;2022-11-20T03:09:50;9.30;98.50
73572;DHT22;61854;48.510;-2.770;2022-11-20T03:12:16;9.30;98.70
73572;DHT22;61854;48.510;-2.770;2022-11-20T03:14:41;9.40;98.60
73572;DHT22;61854;48.510;-2.770;2022-11-20T03:17:07;9.40;98.60
73572;DHT22;61854;48.510;-2.770;2022-11-20T03:19:33;9.40;98.60
73572;DHT22;61854;48.510;-2.770;2022-11-20T03:21:59;9.50;98.60
73572;DHT22;61854;48.510;-2.770;2022-11-20T03:24:25;9.50;98.60
73572;DHT22;61854;48.510;-2.770;2022-11-20T03:26:51;9.60;98.50
73572;DHT22;61854;48.510;-2.770;2022-11-20T03:29:17;9.60;98.40
73572;DHT22;61854;48.510;-2.770;2022-11-20T03:31:42;9.60;98.40
73572;DHT22;61854;48.510;-2.770;2022-11-20T03:34:10;9.70;98.50
73572;DHT22;61854;48.510;-2.770;2022-11-20T03:36:40;9.70;98.40
73572;DHT22;61854;48.510;-2.770;2022-11-20T03:39:06;9.70;98.50
73572;DHT22;61854;48.510;-2.770;2022-11-20T03:41:36;9.70;98.70
73572;DHT22;61854;48.510;-2.770;2022-11-20T03:44:04;9.70;98.70
73572;DHT22;61854;48.510;-2.770;2022-11-20T03:46:30;9.70;98.90
73572;DHT22;61854;48.510;-2.770;2022-11-20T03:48:56;9.70;99.10
73572;DHT22;61854;48.510;-2.770;2022-11-20T03:51:30;9.70;99.10
73572;DHT22;61854;48.510;-2.770;2022-11-20T03:53:58;9.60;99.10
73572;DHT22;61854;48.510;-2.770;2022-11-20T03:56:27;9.60;99.20
73572;DHT22;61854;48.510;-2.770;2022-11-20T03:58:53;9.60;99.30
73572;DHT22;61854;48.510;-2.770;2022-11-20T04:01:24;9.60;99.50
73572;DHT22;61854;48.510;-2.770;2022-11-20T04:03:52;9.50;99.60
73572;DHT22;61854;48.510;-2.770;2022-11-20T04:06:19;9.50;99.70
73572;DHT22;61854;48.510;-2.770;2022-11-20T04:08:45;9.50;99.70
73572;DHT22;61854;48.510;-2.770;2022-11-20T04:11:16;9.60;99.80
73572;DHT22;61854;48.510;-2.770;2022-11-20T04:13:45;9.60;99.90
73572;DHT22;61854;48.510;-2.770;2022-11-20T04:16:11;9.60;99.90
73572;DHT22;61854;48.510;-2.770;2022-11-20T04:18:37;9.60;99.90
73572;DHT22;61854;48.510;-2.770;2022-11-20T04:21:04;9.60;99.90
73572;DHT22;61854;48.510;-2.770;2022-11-20T04:23:30;9.70;99.90
73572;DHT22;61854;48.510;-2.770;2022-11-20T04:26:01;9.60;99.90
73572;DHT22;61854;48.510;-2.770;2022-11-20T04:28:27;9.70;99.90
73572;DHT22;61854;48.510;-2.770;2022-11-20T04:30:53;9.70;99.90
73572;DHT22;61854;48.510;-2.770;2022-11-20T04:33:18;9.60;99.90
73572;DHT22;61854;48.510;-2.770;2022-11-20T04:35:47;9.70;99.90
73572;DHT22;61854;48.510;-2.770;2022-11-20T04:38:16;9.70;99.90
73572;DHT22;61854;48.510;-2.770;2022-11-20T04:40:41;9.80;99.90
73572;DHT22;61854;48.510;-2.770;2022-11-20T04:43:07;9.80;99.90
73572;DHT22;61854;48.510;-2.770;2022-11-20T04:45:33;9.80;99.90
73572;DHT22;61854;48.510;-2.770;2022-11-20T04:47:58;9.80;99.90
73572;DHT22;61854;48.510;-2.770;2022-11-20T04:50:24;9.90;99.90
73572;DHT22;61854;48.510;-2.770;2022-11-20T04:52:49;9.90;99.90
73572;DHT22;61854;48.510;-2.770;2022-11-20T04:55:15;9.90;99.90
73572;DHT22;61854;48.510;-2.770;2022-11-20T04:57:40;9.90;99.90
73572;DHT22;61854;48.510;-2.770;2022-11-20T05:00:06;9.90;99.90
73572;DHT22;61854;48.510;-2.770;2022-11-20T05:02:32;9.90;99.90
73572;DHT22;61854;48.510;-2.770;2022-11-20T05:04:58;9.90;99.90
73572;DHT22;61854;48.510;-2.770;2022-11-20T05:07:23;9.90;99.90
73572;DHT22;61854;48.510;-2.770;2022-11-20T05:09:49;9.90;99.90
73572;DHT22;61854;48.510;-2.770;2022-11-20T05:12:14;9.90;99.90
73572;DHT22;61854;48.510;-2.770;2022-11-20T05:14:40;9.90;99.90
73572;DHT22;61854;48.510;-2.770;2022-11-20T05:17:06;9.90;99.90
73572;DHT22;61854;48.510;-2.770;2022-11-20T05:19:34;9.80;99.90
73572;DHT22;61854;48.510;-2.770;2022-11-20T05:22:00;9.80;99.90
73572;DHT22;61854;48.510;-2.770;2022-11-20T05:24:25;9.80;99.90
73572;DHT22;61854;48.510;-2.770;2022-11-20T05:26:51;9.80;99.90
73572;DHT22;61854;48.510;-2.770;2022-11-20T05:29:17;9.80;99.90
73572;DHT22;61854;48.510;-2.770;2022-11-20T05:31:42;9.80;99.90
73572;DHT22;61854;48.510;-2.770;2022-11-20T05:34:08;9.70;99.90
73572;DHT22;61854;48.510;-2.770;2022-11-20T05:36:34;9.80;99.90
73572;DHT22;61854;48.510;-2.770;2022-11-20T05:38:59;9.80;99.90
73572;DHT22;61854;48.510;-2.770;2022-11-20T05:41:25;9.80;99.90
73572;DHT22;61854;48.510;-2.770;2022-11-20T05:43:51;9.90;99.90
73572;DHT22;61854;48.510;-2.770;2022-11-20T05:46:19;9.80;99.90
73572;DHT22;61854;48.510;-2.770;2022-11-20T05:48:45;9.80;99.90
73572;DHT22;61854;48.510;-2.770;2022-11-20T05:51:14;9.80;99.90
73572;DHT22;61854;48.510;-2.770;2022-11-20T05:53:40;9.80;99.90
73572;DHT22;61854;48.510;-2.770;2022-11-20T05:56:08;9.90;99.90
73572;DHT22;61854;48.510;-2.770;2022-11-20T05:58:35;9.90;99.90
73572;DHT22;61854;48.510;-2.770;2022-11-20T06:01:13;9.90;99.90
73572;DHT22;61854;48.510;-2.770;2022-11-20T06:03:40;10.00;99.90
73572;DHT22;61854;48.510;-2.770;2022-11-20T06:06:06;10.00;99.90
73572;DHT22;61854;48.510;-2.770;2022-11-20T06:08:32;10.10;99.90
73572;DHT22;61854;48.510;-2.770;2022-11-20T06:10:58;10.10;99.90
73572;DHT22;61854;48.510;-2.770;2022-11-20T06:13:24;10.00;99.90
73572;DHT22;61854;48.510;-2.770;2022-11-20T06:15:51;10.00;99.90
73572;DHT22;61854;48.510;-2.770;2022-11-20T06:18:17;9.90;99.80
73572;DHT22;61854;48.510;-2.770;2022-11-20T06:20:43;9.90;99.80
73572;DHT22;61854;48.510;-2.770;2022-11-20T06:23:09;9.80;99.80
73572;DHT22;61854;48.510;-2.770;2022-11-20T06:25:41;9.80;99.80
73572;DHT22;61854;48.510;-2.770;2022-11-20T06:28:07;9.80;99.80
73572;DHT22;61854;48.510;-2.770;2022-11-20T06:30:34;9.70;99.60
73572;DHT22;61854;48.510;-2.770;2022-11-20T06:33:00;9.70;99.70
73572;DHT22;61854;48.510;-2.770;2022-11-20T06:35:26;9.60;99.70
73572;DHT22;61854;48.510;-2.770;2022-11-20T06:37:52;9.60;99.80
73572;DHT22;61854;48.510;-2.770;2022-11-20T06:40:17;9.50;99.70
73572;DHT22;61854;48.510;-2.770;2022-11-20T06:42:43;9.50;99.70
73572;DHT22;61854;48.510;-2.770;2022-11-20T06:45:09;9.50;99.70
73572;DHT22;61854;48.510;-2.770;2022-11-20T06:47:34;9.50;99.70
73572;DHT22;61854;48.510;-2.770;2022-11-20T06:50:00;9.40;99.70
73572;DHT22;61854;48.510;-2.770;2022-11-20T06:52:26;9.40;99.70
73572;DHT22;61854;48.510;-2.770;2022-11-20T06:54:51;9.40;99.60
73572;DHT22;61854;48.510;-2.770;2022-11-20T06:57:17;9.30;99.60
73572;DHT22;61854;48.510;-2.770;2022-11-20T06:59:43;9.30;99.60
73572;DHT22;61854;48.510;-2.770;2022-11-20T07:02:11;9.30;99.60
73572;DHT22;61854;48.510;-2.770;2022-11-20T07:04:38;9.30;99.50
73572;DHT22;61854;48.510;-2.770;2022-11-20T07:07:04;9.20;99.40
73572;DHT22;61854;48.510;-2.770;2022-11-20T07:09:29;9.20;99.40
73572;DHT22;61854;48.510;-2.770;2022-11-20T07:11:55;9.10;99.30
73572;DHT22;61854;48.510;-2.770;2022-11-20T07:14:20;9.10;99.40
73572;DHT22;61854;48.510;-2.770;2022-11-20T07:16:46;9.10;99.40
73572;DHT22;61854;48.510;-2.770;2022-11-20T07:19:11;9.10;99.20
73572;DHT22;61854;48.510;-2.770;2022-11-20T07:21:37;9.00;99.20
73572;DHT22;61854;48.510;-2.770;2022-11-20T07:24:03;8.90;99.20
73572;DHT22;61854;48.510;-2.770;2022-11-20T07:26:28;8.90;99.20
73572;DHT22;61854;48.510;-2.770;2022-11-20T07:28:54;8.90;99.20
73572;DHT22;61854;48.510;-2.770;2022-11-20T07:31:20;8.80;99.10
73572;DHT22;61854;48.510;-2.770;2022-11-20T07:33:46;8.80;99.10
73572;DHT22;61854;48.510;-2.770;2022-11-20T07:36:11;8.80;99.10
73572;DHT22;61854;48.510;-2.770;2022-11-20T07:38:37;8.80;99.10
73572;DHT22;61854;48.510;-2.770;2022-11-20T07:41:03;8.80;99.10
73572;DHT22;61854;48.510;-2.770;2022-11-20T07:43:29;8.80;99.10
73572;DHT22;61854;48.510;-2.770;2022-11-20T07:45:56;8.90;99.00
73572;DHT22;61854;48.510;-2.770;2022-11-20T07:48:22;8.90;98.80
73572;DHT22;61854;48.510;-2.770;2022-11-20T07:50:48;8.80;98.80
73572;DHT22;61854;48.510;-2.770;2022-11-20T07:53:13;8.80;98.70
73572;DHT22;61854;48.510;-2.770;2022-11-20T07:55:39;8.80;98.60
73572;DHT22;61854;48.510;-2.770;2022-11-20T07:58:05;8.80;98.50
73572;DHT22;61854;48.510;-2.770;2022-11-20T08:00:31;8.80;98.30
73572;DHT22;61854;48.510;-2.770;2022-11-20T08:02:56;8.80;98.30
73572;DHT22;61854;48.510;-2.770;2022-11-20T08:05:22;8.90;98.50
73572;DHT22;61854;48.510;-2.770;2022-11-20T08:07:48;8.90;98.60
73572;DHT22;61854;48.510;-2.770;2022-11-20T08:10:15;9.00;98.30
73572;DHT22;61854;48.510;-2.770;2022-11-20T08:12:51;9.00;98.00
73572;DHT22;61854;48.510;-2.770;2022-11-20T08:15:37;9.10;97.80
73572;DHT22;61854;48.510;-2.770;2022-11-20T08:18:04;9.00;97.40
73572;DHT22;61854;48.510;-2.770;2022-11-20T08:20:31;9.10;97.40
73572;DHT22;61854;48.510;-2.770;2022-11-20T08:23:00;9.10;97.70
73572;DHT22;61854;48.510;-2.770;2022-11-20T08:25:27;9.10;97.70
73572;DHT22;61854;48.510;-2.770;2022-11-20T08:27:54;9.10;97.90
73572;DHT22;61854;48.510;-2.770;2022-11-20T08:30:19;9.10;98.50
73572;DHT22;61854;48.510;-2.770;2022-11-20T08:32:45;9.20;98.10
73572;DHT22;61854;48.510;-2.770;2022-11-20T08:35:11;9.30;98.10
73572;DHT22;61854;48.510;-2.770;2022-11-20T08:37:36;9.30;98.30
73572;DHT22;61854;48.510;-2.770;2022-11-20T08:40:10;9.30;98.10
73572;DHT22;61854;48.510;-2.770;2022-11-20T08:42:36;9.30;97.70
73572;DHT22;61854;48.510;-2.770;2022-11-20T08:45:02;9.20;97.70
73572;DHT22;61854;48.510;-2.770;2022-11-20T08:47:28;9.20;97.60
73572;DHT22;61854;48.510;-2.770;2022-11-20T08:49:53;9.20;97.70
73572;DHT22;61854;48.510;-2.770;2022-11-20T08:52:19;9.20;97.80
73572;DHT22;61854;48.510;-2.770;2022-11-20T08:54:45;9.20;97.80
73572;DHT22;61854;48.510;-2.770;2022-11-20T08:57:10;9.20;97.90
73572;DHT22;61854;48.510;-2.770;2022-11-20T08:59:36;9.20;97.90
73572;DHT22;61854;48.510;-2.770;2022-11-20T09:02:01;9.20;97.80
73572;DHT22;61854;48.510;-2.770;2022-11-20T09:04:27;9.30;97.90
73572;DHT22;61854;48.510;-2.770;2022-11-20T09:06:52;9.30;97.80
73572;DHT22;61854;48.510;-2.770;2022-11-20T09:09:18;9.40;97.80
73572;DHT22;61854;48.510;-2.770;2022-11-20T09:11:44;9.40;97.40
73572;DHT22;61854;48.510;-2.770;2022-11-20T09:14:10;9.50;97.00
73572;DHT22;61854;48.510;-2.770;2022-11-20T09:16:35;9.50;97.20
73572;DHT22;61854;48.510;-2.770;2022-11-20T09:19:01;9.50;97.10
73572;DHT22;61854;48.510;-2.770;2022-11-20T09:21:26;9.60;97.30
73572;DHT22;61854;48.510;-2.770;2022-11-20T09:23:52;9.60;97.30
73572;DHT22;61854;48.510;-2.770;2022-11-20T09:26:18;9.80;97.50
73572;DHT22;61854;48.510;-2.770;2022-11-20T09:28:44;9.80;97.20
73572;DHT22;61854;48.510;-2.770;2022-11-20T09:31:23;10.00;97.00
73572;DHT22;61854;48.510;-2.770;2022-11-20T09:33:50;10.00;96.80
73572;DHT22;61854;48.510;-2.770;2022-11-20T09:36:15;10.10;96.40
73572;DHT22;61854;48.510;-2.770;2022-11-20T09:38:47;10.10;96.40
73572;DHT22;61854;48.510;-2.770;2022-11-20T09:55:46;10.20;95.30
73572;DHT22;61854;48.510;-2.770;2022-11-20T10:00:47;10.10;95.10
73572;DHT22;61854;48.510;-2.770;2022-11-20T10:03:29;10.20;95.60
73572;DHT22;61854;48.510;-2.770;2022-11-20T10:06:00;10.20;95.50
73572;DHT22;61854;48.510;-2.770;2022-11-20T10:08:48;10.30;95.10
73572;DHT22;61854;48.510;-2.770;2022-11-20T10:25:20;10.50;95.70
73572;DHT22;61854;48.510;-2.770;2022-11-20T10:30:21;10.50;95.80
73572;DHT22;61854;48.510;-2.770;2022-11-20T10:33:04;10.50;95.50
73572;DHT22;61854;48.510;-2.770;2022-11-20T10:36:02;10.60;95.00
73572;DHT22;61854;48.510;-2.770;2022-11-20T10:38:40;10.60;94.90
73572;DHT22;61854;48.510;-2.770;2022-11-20T10:41:21;10.70;94.60
73572;DHT22;61854;48.510;-2.770;2022-11-20T10:44:17;10.80;95.30
73572;DHT22;61854;48.510;-2.770;2022-11-20T10:47:05;11.00;94.40
73572;DHT22;61854;48.510;-2.770;2022-11-20T10:49:33;11.20;94.60
73572;DHT22;61854;48.510;-2.770;2022-11-20T10:55:01;11.30;94.20
73572;DHT22;61854;48.510;-2.770;2022-11-20T11:00:15;11.40;93.50
73572;DHT22;61854;48.510;-2.770;2022-11-20T11:02:53;11.40;92.60
73572;DHT22;61854;48.510;-2.770;2022-11-20T11:07:50;11.40;92.30
73572;DHT22;61854;48.510;-2.770;2022-11-20T11:10:39;11.40;92.30
73572;DHT22;61854;48.510;-2.770;2022-11-20T11:15:46;11.50;91.40
73572;DHT22;61854;48.510;-2.770;2022-11-20T11:18:27;11.50;91.00
73572;DHT22;61854;48.510;-2.770;2022-11-20T11:20:54;11.50;91.20
73572;DHT22;61854;48.510;-2.770;2022-11-20T11:23:35;11.50;91.50
73572;DHT22;61854;48.510;-2.770;2022-11-20T11:26:05;11.50;91.50
73572;DHT22;61854;48.510;-2.770;2022-11-20T11:28:32;11.50;90.30
73572;DHT22;61854;48.510;-2.770;2022-11-20T11:30:58;11.60;90.40
73572;DHT22;61854;48.510;-2.770;2022-11-20T11:33:28;11.60;90.30
73572;DHT22;61854;48.510;-2.770;2022-11-20T11:36:00;11.60;90.40
73572;DHT22;61854;48.510;-2.770;2022-11-20T11:38:40;11.60;90.00
73572;DHT22;61854;48.510;-2.770;2022-11-20T11:41:16;11.60;90.00
73572;DHT22;61854;48.510;-2.770;2022-11-20T11:44:00;11.70;89.60
73572;DHT22;61854;48.510;-2.770;2022-11-20T11:46:53;11.80;90.00
73572;DHT22;61854;48.510;-2.770;2022-11-20T11:49:20;11.90;88.80
73572;DHT22;61854;48.510;-2.770;2022-11-20T11:52:08;12.10;87.10
73572;DHT22;61854;48.510;-2.770;2022-11-20T11:54:43;12.30;87.60
73572;DHT22;61854;48.510;-2.770;2022-11-20T12:00:09;12.50;85.90
73572;DHT22;61854;48.510;-2.770;2022-11-20T12:05:19;12.60;84.60
73572;DHT22;61854;48.510;-2.770;2022-11-20T12:07:47;12.50;85.50
73572;DHT22;61854;48.510;-2.770;2022-11-20T12:10:38;12.50;83.90
73572;DHT22;61854;48.510;-2.770;2022-11-20T12:15:44;12.60;81.70
73572;DHT22;61854;48.510;-2.770;2022-11-20T12:18:16;12.60;82.20
73572;DHT22;61854;48.510;-2.770;2022-11-20T12:20:49;12.60;82.20
73572;DHT22;61854;48.510;-2.770;2022-11-20T12:23:28;12.60;83.80
73572;DHT22;61854;48.510;-2.770;2022-11-20T12:25:58;12.80;82.30
73572;DHT22;61854;48.510;-2.770;2022-11-20T12:28:51;12.70;80.50
73572;DHT22;61854;48.510;-2.770;2022-11-20T12:34:05;12.60;81.70
73572;DHT22;61854;48.510;-2.770;2022-11-20T12:36:53;12.60;81.80
73572;DHT22;61854;48.510;-2.770;2022-11-20T12:39:31;12.50;81.90
73572;DHT22;61854;48.510;-2.770;2022-11-20T12:42:20;12.50;81.20
73572;DHT22;61854;48.510;-2.770;2022-11-20T12:45:17;12.50;81.30
73572;DHT22;61854;48.510;-2.770;2022-11-20T12:47:55;12.40;80.40
73572;DHT22;61854;48.510;-2.770;2022-11-20T12:50:56;12.40;81.00
73572;DHT22;61854;48.510;-2.770;2022-11-20T12:56:54;12.70;79.90
73572;DHT22;61854;48.510;-2.770;2022-11-20T13:01:56;13.00;75.60
73572;DHT22;61854;48.510;-2.770;2022-11-20T13:04:43;13.00;75.70
73572;DHT22;61854;48.510;-2.770;2022-11-20T13:07:14;13.10;75.10
73572;DHT22;61854;48.510;-2.770;2022-11-20T13:09:45;13.10;74.50
73572;DHT22;61854;48.510;-2.770;2022-11-20T13:12:32;13.20;74.60
73572;DHT22;61854;48.510;-2.770;2022-11-20T13:17:55;13.10;72.60
73572;DHT22;61854;48.510;-2.770;2022-11-20T13:20:23;13.10;73.00
73572;DHT22;61854;48.510;-2.770;2022-11-20T13:22:51;13.00;73.00
73572;DHT22;61854;48.510;-2.770;2022-11-20T13:25:31;13.00;74.40
73572;DHT22;61854;48.510;-2.770;2022-11-20T13:28:04;13.00;75.10
73572;DHT22;61854;48.510;-2.770;2022-11-20T13:30:31;13.00;75.40
73572;DHT22;61854;48.510;-2.770;2022-11-20T13:33:06;13.10;75.10
73572;DHT22;61854;48.510;-2.770;2022-11-20T13:35:39;13.10;74.70
73572;DHT22;61854;48.510;-2.770;2022-11-20T13:38:12;13.50;73.70
73572;DHT22;61854;48.510;-2.770;2022-11-20T13:43:36;14.90;69.00
73572;DHT22;61854;48.510;-2.770;2022-11-20T13:46:06;15.90;66.20
73572;DHT22;61854;48.510;-2.770;2022-11-20T13:48:41;16.40;64.20
73572;DHT22;61854;48.510;-2.770;2022-11-20T13:51:15;16.40;63.50
73572;DHT22;61854;48.510;-2.770;2022-11-20T13:53:57;16.20;62.80
73572;DHT22;61854;48.510;-2.770;2022-11-20T14:01:48;16.20;64.00
73572;DHT22;61854;48.510;-2.770;2022-11-20T14:04:21;16.20;63.50
73572;DHT22;61854;48.510;-2.770;2022-11-20T14:06:50;15.80;64.50
73572;DHT22;61854;48.510;-2.770;2022-11-20T14:09:27;15.70;65.10
73572;DHT22;61854;48.510;-2.770;2022-11-20T14:11:53;15.70;64.70
73572;DHT22;61854;48.510;-2.770;2022-11-20T14:14:24;15.60;64.70
73572;DHT22;61854;48.510;-2.770;2022-11-20T14:16:51;15.60;64.60
73572;DHT22;61854;48.510;-2.770;2022-11-20T14:21:47;15.70;64.10
73572;DHT22;61854;48.510;-2.770;2022-11-20T14:24:14;16.00;63.60
73572;DHT22;61854;48.510;-2.770;2022-11-20T14:26:44;16.30;62.00
73572;DHT22;61854;48.510;-2.770;2022-11-20T14:31:44;15.70;62.90
73572;DHT22;61854;48.510;-2.770;2022-11-20T14:34:19;15.20;65.20
73572;DHT22;61854;48.510;-2.770;2022-11-20T14:36:45;15.20;66.00
73572;DHT22;61854;48.510;-2.770;2022-11-20T14:39:12;15.60;65.00
73572;DHT22;61854;48.510;-2.770;2022-11-20T14:41:51;15.90;64.00
73572;DHT22;61854;48.510;-2.770;2022-11-20T14:44:17;15.70;64.20
73572;DHT22;61854;48.510;-2.770;2022-11-20T14:46:43;15.70;64.40
73572;DHT22;61854;48.510;-2.770;2022-11-20T14:49:10;15.60;64.60
73572;DHT22;61854;48.510;-2.770;2022-11-20T14:51:40;15.40;65.60
73572;DHT22;61854;48.510;-2.770;2022-11-20T14:54:17;15.50;65.90
73572;DHT22;61854;48.510;-2.770;2022-11-20T14:57:01;15.70;65.20
73572;DHT22;61854;48.510;-2.770;2022-11-20T14:59:30;15.80;65.20
73572;DHT22;61854;48.510;-2.770;2022-11-20T15:02:10;15.90;63.90
73572;DHT22;61854;48.510;-2.770;2022-11-20T15:04:50;15.80;64.30
73572;DHT22;61854;48.510;-2.770;2022-11-20T15:07:29;15.70;64.80
73572;DHT22;61854;48.510;-2.770;2022-11-20T15:10:04;15.20;65.50
73572;DHT22;61854;48.510;-2.770;2022-11-20T15:12:31;14.80;67.50
73572;DHT22;61854;48.510;-2.770;2022-11-20T15:14:58;14.40;68.80
73572;DHT22;61854;48.510;-2.770;2022-11-20T15:17:24;14.00;69.70
73572;DHT22;61854;48.510;-2.770;2022-11-20T15:19:50;13.70;70.90
73572;DHT22;61854;48.510;-2.770;2022-11-20T15:22:16;13.40;72.10
73572;DHT22;61854;48.510;-2.770;2022-11-20T15:24:42;13.10;73.30
73572;DHT22;61854;48.510;-2.770;2022-11-20T15:27:08;12.90;74.20
73572;DHT22;61854;48.510;-2.770;2022-11-20T15:29:34;12.80;74.80
73572;DHT22;61854;48.510;-2.770;2022-11-20T15:32:00;12.60;75.40
73572;DHT22;61854;48.510;-2.770;2022-11-20T15:34:27;12.50;75.90
73572;DHT22;61854;48.510;-2.770;2022-11-20T15:36:52;12.30;76.80
73572;DHT22;61854;48.510;-2.770;2022-11-20T15:39:19;12.20;77.40
73572;DHT22;61854;48.510;-2.770;2022-11-20T15:41:45;12.10;78.00
73572;DHT22;61854;48.510;-2.770;2022-11-20T15:44:11;12.00;78.50
73572;DHT22;61854;48.510;-2.770;2022-11-20T15:46:39;11.90;79.00
73572;DHT22;61854;48.510;-2.770;2022-11-20T15:49:13;11.90;79.30
73572;DHT22;61854;48.510;-2.770;2022-11-20T15:51:43;11.80;80.00
73572;DHT22;61854;48.510;-2.770;2022-11-20T15:56:37;11.70;81.40
73572;DHT22;61854;48.510;-2.770;2022-11-20T15:59:03;11.60;82.00
73572;DHT22;61854;48.510;-2.770;2022-11-20T16:01:28;11.60;82.50
73572;DHT22;61854;48.510;-2.770;2022-11-20T16:03:54;11.50;83.00
73572;DHT22;61854;48.510;-2.770;2022-11-20T16:06:20;11.50;83.70
73572;DHT22;61854;48.510;-2.770;2022-11-20T16:08:45;11.40;84.10
73572;DHT22;61854;48.510;-2.770;2022-11-20T16:11:14;11.40;84.20
73572;DHT22;61854;48.510;-2.770;2022-11-20T16:13:39;11.40;84.60
73572;DHT22;61854;48.510;-2.770;2022-11-20T16:16:27;11.40;85.00
73572;DHT22;61854;48.510;-2.770;2022-11-20T16:18:54;11.30;85.20
73572;DHT22;61854;48.510;-2.770;2022-11-20T16:21:20;11.30;85.30
73572;DHT22;61854;48.510;-2.770;2022-11-20T16:23:45;11.20;85.80
73572;DHT22;61854;48.510;-2.770;2022-11-20T16:26:13;11.20;86.30
73572;DHT22;61854;48.510;-2.770;2022-11-20T16:28:39;11.10;86.60
73572;DHT22;61854;48.510;-2.770;2022-11-20T16:31:14;11.10;86.70
73572;DHT22;61854;48.510;-2.770;2022-11-20T16:33:40;11.00;87.30
73572;DHT22;61854;48.510;-2.770;2022-11-20T16:36:15;11.00;87.60
73572;DHT22;61854;48.510;-2.770;2022-11-20T16:38:41;11.00;87.80
73572;DHT22;61854;48.510;-2.770;2022-11-20T16:41:07;11.00;88.80
73572;DHT22;61854;48.510;-2.770;2022-11-20T16:46:12;10.90;88.40
73572;DHT22;61854;48.510;-2.770;2022-11-20T16:48:38;10.90;88.70
73572;DHT22;61854;48.510;-2.770;2022-11-20T16:51:08;10.80;89.10
73572;DHT22;61854;48.510;-2.770;2022-11-20T16:53:34;10.80;89.40
73572;DHT22;61854;48.510;-2.770;2022-11-20T16:56:10;10.80;89.50
73572;DHT22;61854;48.510;-2.770;2022-11-20T16:58:36;10.70;89.90
73572;DHT22;61854;48.510;-2.770;2022-11-20T17:01:06;10.70;90.00
73572;DHT22;61854;48.510;-2.770;2022-11-20T17:03:36;10.70;90.10